sensor_id;sensor_type;location;lat;lon;timestamp;pressure;altitude;pressure_sealevel;temperature;humidity
57668;BME280;43499;52.366;12.912;2023-05-11T00:00:36;101054.63;;;15.19;94.80
57668;BME280;43499;52.366;12.912;2023-05-11T00:01:37;101054.03;;;15.23;94.10
57668;BME280;43499;52.366;12.912;2023-05-11T00:02:38;101040.41;;;15.17;93.69
57668;BME280;43499;52.366;12.912;2023-05-11T00:03:39;101019.59;;;15.10;94.00
57668;BME280;43499;52.366;12.912;2023-05-11T00:04:40;101040.72;;;15.22;93.88
57668;BME280;43499;52.366;12.912;2023-05-11T00:05:41;101051.31;;;15.22;93.48
57668;BME280;43499;52.366;12.912;2023-05-11T00:06:42;101030.81;;;15.06;93.80
57668;BME280;43499;52.366;12.912;2023-05-11T00:07:43;101043.34;;;15.08;94.53
57668;BME280;43499;52.366;12.912;2023-05-11T00:08:44;101056.38;;;15.19;94.09
57668;BME280;43499;52.366;12.912;2023-05-11T00:09:45;101055.47;;;15.18;94.33
57668;BME280;43499;52.366;12.912;2023-05-11T00:10:46;101039.97;;;15.11;94.56
57668;BME280;43499;52.366;12.912;2023-05-11T00:11:50;101051.19;;;15.20;94.11
57668;BME280;43499;52.366;12.912;2023-05-11T00:12:51;101049.97;;;15.15;94.38
57668;BME280;43499;52.366;12.912;2023-05-11T00:13:52;101049.84;;;15.14;94.65
57668;BME280;43499;52.366;12.912;2023-05-11T00:14:53;101044.16;;;15.07;94.08
57668;BME280;43499;52.366;12.912;2023-05-11T00:15:54;101050.16;;;15.05;94.42
57668;BME280;43499;52.366;12.912;2023-05-11T00:16:55;101057.66;;;14.99;95.09
57668;BME280;43499;52.366;12.912;2023-05-11T00:17:56;101054.78;;;14.95;95.24
57668;BME280;43499;52.366;12.912;2023-05-11T00:18:58;101042.41;;;14.94;95.29
57668;BME280;43499;52.366;12.912;2023-05-11T00:19:59;101042.28;;;14.93;95.08
57668;BME280;43499;52.366;12.912;2023-05-11T00:21:00;101046.66;;;14.92;95.13
57668;BME280;43499;52.366;12.912;2023-05-11T00:22:01;101042.78;;;14.87;95.22
57668;BME280;43499;52.366;12.912;2023-05-11T00:23:02;101050.13;;;14.91;95.44
57668;BME280;43499;52.366;12.912;2023-05-11T00:24:04;101036.38;;;14.84;95.33
57668;BME280;43499;52.366;12.912;2023-05-11T00:25:05;101044.03;;;14.92;95.43
57668;BME280;43499;52.366;12.912;2023-05-11T00:26:06;101052.66;;;14.90;95.43
57668;BME280;43499;52.366;12.912;2023-05-11T00:27:07;101050.84;;;14.89;95.78
57668;BME280;43499;52.366;12.912;2023-05-11T00:28:08;101042.78;;;14.87;95.42
57668;BME280;43499;52.366;12.912;2023-05-11T00:29:10;101051.25;;;14.95;95.32
57668;BME280;43499;52.366;12.912;2023-05-11T00:30:12;101027.63;;;14.85;95.05
57668;BME280;43499;52.366;12.912;2023-05-11T00:31:14;101026.50;;;14.81;95.65
57668;BME280;43499;52.366;12.912;2023-05-11T00:32:15;101049.09;;;14.89;95.73
57668;BME280;43499;52.366;12.912;2023-05-11T00:33:16;101025.97;;;14.73;95.60
57668;BME280;43499;52.366;12.912;2023-05-11T00:34:17;101042.56;;;14.84;95.65
57668;BME280;43499;52.366;12.912;2023-05-11T00:35:18;101036.13;;;14.80;95.48
57668;BME280;43499;52.366;12.912;2023-05-11T00:36:19;101045.19;;;14.84;95.35
57668;BME280;43499;52.366;12.912;2023-05-11T00:37:21;101040.53;;;14.80;95.32
57668;BME280;43499;52.366;12.912;2023-05-11T00:38:22;101031.78;;;14.81;95.02
57668;BME280;43499;52.366;12.912;2023-05-11T00:39:23;101039.72;;;14.81;94.67
57668;BME280;43499;52.366;12.912;2023-05-11T00:40:24;101025.88;;;14.72;95.19
57668;BME280;43499;52.366;12.912;2023-05-11T00:41:25;101008.88;;;14.56;95.15
57668;BME280;43499;52.366;12.912;2023-05-11T00:42:26;101033.56;;;14.69;95.22
57668;BME280;43499;52.366;12.912;2023-05-11T00:43:27;101034.47;;;14.69;95.16
57668;BME280;43499;52.366;12.912;2023-05-11T00:44:28;101025.78;;;14.58;95.32
57668;BME280;43499;52.366;12.912;2023-05-11T00:45:29;101038.06;;;14.70;94.75
57668;BME280;43499;52.366;12.912;2023-05-11T00:46:30;101033.31;;;14.65;94.69
57668;BME280;43499;52.366;12.912;2023-05-11T00:47:31;101023.81;;;14.56;94.88
57668;BME280;43499;52.366;12.912;2023-05-11T00:48:32;101035.06;;;14.65;94.87
57668;BME280;43499;52.366;12.912;2023-05-11T00:49:34;101038.28;;;14.61;94.96
57668;BME280;43499;52.366;12.912;2023-05-11T00:50:35;101038.88;;;14.57;95.23
57668;BME280;43499;52.366;12.912;2023-05-11T00:51:37;101025.50;;;14.42;96.08
57668;BME280;43499;52.366;12.912;2023-05-11T00:52:38;101002.81;;;14.32;96.30
57668;BME280;43499;52.366;12.912;2023-05-11T00:53:39;101038.63;;;14.40;96.52
57668;BME280;43499;52.366;12.912;2023-05-11T00:54:40;101029.25;;;14.32;97.09
57668;BME280;43499;52.366;12.912;2023-05-11T00:55:41;101029.72;;;14.26;97.29
57668;BME280;43499;52.366;12.912;2023-05-11T00:56:43;101039.44;;;14.39;98.08
57668;BME280;43499;52.366;12.912;2023-05-11T00:57:44;101042.97;;;14.40;97.81
57668;BME280;43499;52.366;12.912;2023-05-11T00:58:46;101041.38;;;14.42;97.46
57668;BME280;43499;52.366;12.912;2023-05-11T00:59:48;101029.34;;;14.33;96.60
57668;BME280;43499;52.366;12.912;2023-05-11T01:00:49;101036.81;;;14.27;96.77
57668;BME280;43499;52.366;12.912;2023-05-11T01:01:50;101033.34;;;14.15;97.24
57668;BME280;43499;52.366;12.912;2023-05-11T01:02:52;101038.72;;;14.16;97.45
57668;BME280;43499;52.366;12.912;2023-05-11T01:03:53;101035.75;;;14.12;97.91
57668;BME280;43499;52.366;12.912;2023-05-11T01:04:54;101033.91;;;14.11;97.48
57668;BME280;43499;52.366;12.912;2023-05-11T01:06:07;101024.16;;;13.98;97.42
57668;BME280;43499;52.366;12.912;2023-05-11T01:07:42;101030.38;;;13.98;98.22
57668;BME280;43499;52.366;12.912;2023-05-11T01:08:56;101041.06;;;14.00;98.08
57668;BME280;43499;52.366;12.912;2023-05-11T01:11:14;101019.47;;;13.94;97.70
57668;BME280;43499;52.366;12.912;2023-05-11T01:12:32;101024.88;;;13.95;97.13
57668;BME280;43499;52.366;12.912;2023-05-11T01:13:37;101030.06;;;13.94;96.90
57668;BME280;43499;52.366;12.912;2023-05-11T01:14:44;101028.69;;;13.87;96.94
57668;BME280;43499;52.366;12.912;2023-05-11T01:15:53;101041.53;;;13.94;96.77
57668;BME280;43499;52.366;12.912;2023-05-11T01:17:10;101039.91;;;13.96;96.54
57668;BME280;43499;52.366;12.912;2023-05-11T01:18:39;101031.56;;;13.78;96.35
57668;BME280;43499;52.366;12.912;2023-05-11T01:19:55;101037.78;;;13.67;97.11
57668;BME280;43499;52.366;12.912;2023-05-11T01:20:59;101029.09;;;13.56;97.89
57668;BME280;43499;52.366;12.912;2023-05-11T01:22:09;101024.72;;;13.56;98.44
57668;BME280;43499;52.366;12.912;2023-05-11T01:25:17;101041.22;;;13.66;97.64
57668;BME280;43499;52.366;12.912;2023-05-11T01:28:09;101037.00;;;13.56;98.29
57668;BME280;43499;52.366;12.912;2023-05-11T01:30:53;101027.59;;;13.48;98.55
57668;BME280;43499;52.366;12.912;2023-05-11T01:31:55;101030.59;;;13.40;98.96
57668;BME280;43499;52.366;12.912;2023-05-11T01:33:02;101031.84;;;13.46;99.45
57668;BME280;43499;52.366;12.912;2023-05-11T01:34:18;101015.28;;;13.36;99.22
57668;BME280;43499;52.366;12.912;2023-05-11T01:35:23;101031.03;;;13.47;98.90
57668;BME280;43499;52.366;12.912;2023-05-11T01:36:29;101041.59;;;13.47;98.77
57668;BME280;43499;52.366;12.912;2023-05-11T01:37:33;101025.84;;;13.36;98.24
57668;BME280;43499;52.366;12.912;2023-05-11T01:38:38;101032.50;;;13.31;98.81
57668;BME280;43499;52.366;12.912;2023-05-11T01:39:54;101028.16;;;13.20;99.86
57668;BME280;43499;52.366;12.912;2023-05-11T01:40:57;101021.34;;;13.11;100.00
57668;BME280;43499;52.366;12.912;2023-05-11T01:42:06;101034.53;;;13.11;100.00
57668;BME280;43499;52.366;12.912;2023-05-11T01:43:19;101027.56;;;13.12;100.00
57668;BME280;43499;52.366;12.912;2023-05-11T01:44:24;101047.06;;;13.26;100.00
57668;BME280;43499;52.366;12.912;2023-05-11T01:45:28;101049.38;;;13.21;100.00
57668;BME280;43499;52.366;12.912;2023-05-11T01:46:32;101035.59;;;13.14;100.00
57668;BME280;43499;52.366;12.912;2023-05-11T01:47:34;101046.47;;;13.18;100.00
57668;BME280;43499;52.366;12.912;2023-05-11T01:48:39;101040.41;;;13.07;100.00
57668;BME280;43499;52.366;12.912;2023-05-11T01:49:43;101045.56;;;13.06;100.00
57668;BME280;43499;52.366;12.912;2023-05-11T01:50:45;101030.50;;;12.93;100.00
57668;BME280;43499;52.366;12.912;2023-05-11T01:51:46;101047.72;;;13.00;100.00
57668;BME280;43499;52.366;12.912;2023-05-11T01:52:51;101040.16;;;12.92;100.00
57668;BME280;43499;52.366;12.912;2023-05-11T01:53:53;101054.84;;;13.01;100.00
57668;BME280;43499;52.366;12.912;2023-05-11T01:54:57;101047.97;;;13.03;100.00
57668;BME280;43499;52.366;12.912;2023-05-11T01:56:01;101043.16;;;12.97;100.00
57668;BME280;43499;52.366;12.912;2023-05-11T01:57:03;101042.81;;;13.04;100.00
57668;BME280;43499;52.366;12.912;2023-05-11T01:58:05;101056.69;;;13.02;100.00
57668;BME280;43499;52.366;12.912;2023-05-11T01:59:10;101036.13;;;12.86;100.00
57668;BME280;43499;52.366;12.912;2023-05-11T02:00:14;101053.00;;;12.88;100.00
57668;BME280;43499;52.366;12.912;2023-05-11T02:01:16;101061.47;;;12.84;100.00
57668;BME280;43499;52.366;12.912;2023-05-11T02:02:19;101045.97;;;12.76;100.00
57668;BME280;43499;52.366;12.912;2023-05-11T02:03:21;101041.50;;;12.75;100.00
57668;BME280;43499;52.366;12.912;2023-05-11T02:04:23;101056.78;;;12.91;100.00
57668;BME280;43499;52.366;12.912;2023-05-11T02:05:27;101053.56;;;12.95;100.00
57668;BME280;43499;52.366;12.912;2023-05-11T02:06:29;101041.28;;;12.84;100.00
57668;BME280;43499;52.366;12.912;2023-05-11T02:07:33;101058.94;;;12.85;100.00
57668;BME280;43499;52.366;12.912;2023-05-11T02:08:37;101062.28;;;12.83;100.00
57668;BME280;43499;52.366;12.912;2023-05-11T02:09:39;101058.47;;;12.79;100.00
57668;BME280;43499;52.366;12.912;2023-05-11T02:10:42;101048.13;;;12.70;100.00
57668;BME280;43499;52.366;12.912;2023-05-11T02:11:47;101045.13;;;12.65;100.00
57668;BME280;43499;52.366;12.912;2023-05-11T02:12:51;101061.56;;;12.73;100.00
57668;BME280;43499;52.366;12.912;2023-05-11T02:13:55;101058.34;;;12.77;100.00
57668;BME280;43499;52.366;12.912;2023-05-11T02:14:58;101049.63;;;12.78;100.00
57668;BME280;43499;52.366;12.912;2023-05-11T02:16:01;101065.81;;;12.83;100.00
57668;BME280;43499;52.366;12.912;2023-05-11T02:17:05;101065.94;;;12.85;100.00
57668;BME280;43499;52.366;12.912;2023-05-11T02:18:10;101057.91;;;12.83;100.00
57668;BME280;43499;52.366;12.912;2023-05-11T02:19:12;101067.09;;;12.88;100.00
57668;BME280;43499;52.366;12.912;2023-05-11T02:20:14;101050.69;;;12.80;100.00
57668;BME280;43499;52.366;12.912;2023-05-11T02:21:16;101058.72;;;12.82;100.00
57668;BME280;43499;52.366;12.912;2023-05-11T02:22:20;101053.22;;;12.79;100.00
57668;BME280;43499;52.366;12.912;2023-05-11T02:23:24;101068.22;;;12.80;100.00
57668;BME280;43499;52.366;12.912;2023-05-11T02:24:26;101070.06;;;12.81;100.00
57668;BME280;43499;52.366;12.912;2023-05-11T02:25:29;101054.09;;;12.79;100.00
57668;BME280;43499;52.366;12.912;2023-05-11T02:26:31;101062.81;;;12.78;100.00
57668;BME280;43499;52.366;12.912;2023-05-11T02:27:32;101065.00;;;12.84;100.00
57668;BME280;43499;52.366;12.912;2023-05-11T02:28:35;101042.50;;;12.77;100.00
57668;BME280;43499;52.366;12.912;2023-05-11T02:29:36;101058.59;;;12.80;100.00
57668;BME280;43499;52.366;12.912;2023-05-11T02:30:45;101070.53;;;12.87;99.77
57668;BME280;43499;52.366;12.912;2023-05-11T02:31:48;101046.25;;;12.57;99.78
57668;BME280;43499;52.366;12.912;2023-05-11T02:32:54;101070.47;;;12.63;100.00
57668;BME280;43499;52.366;12.912;2023-05-11T02:34:06;101061.13;;;12.45;100.00
57668;BME280;43499;52.366;12.912;2023-05-11T02:35:15;101059.47;;;12.35;100.00
57668;BME280;43499;52.366;12.912;2023-05-11T02:36:21;101072.56;;;12.45;100.00
57668;BME280;43499;52.366;12.912;2023-05-11T02:37:24;101077.03;;;12.46;100.00
57668;BME280;43499;52.366;12.912;2023-05-11T02:38:34;101055.13;;;12.36;100.00
57668;BME280;43499;52.366;12.912;2023-05-11T02:39:38;101071.41;;;12.42;100.00
57668;BME280;43499;52.366;12.912;2023-05-11T02:40:48;101075.78;;;12.41;100.00
57668;BME280;43499;52.366;12.912;2023-05-11T02:41:55;101072.09;;;12.39;100.00
57668;BME280;43499;52.366;12.912;2023-05-11T02:42:59;101063.47;;;12.30;100.00
57668;BME280;43499;52.366;12.912;2023-05-11T02:44:05;101070.38;;;12.40;100.00
57668;BME280;43499;52.366;12.912;2023-05-11T02:45:11;101051.19;;;12.30;100.00
57668;BME280;43499;52.366;12.912;2023-05-11T02:46:16;101073.16;;;12.41;100.00
57668;BME280;43499;52.366;12.912;2023-05-11T02:47:20;101060.84;;;12.30;100.00
57668;BME280;43499;52.366;12.912;2023-05-11T02:48:25;101077.63;;;12.42;100.00
57668;BME280;43499;52.366;12.912;2023-05-11T02:49:29;101073.00;;;12.40;100.00
57668;BME280;43499;52.366;12.912;2023-05-11T02:50:35;101064.69;;;12.23;100.00
57668;BME280;43499;52.366;12.912;2023-05-11T02:51:38;101065.59;;;12.24;100.00
57668;BME280;43499;52.366;12.912;2023-05-11T02:52:44;101070.50;;;12.19;100.00
57668;BME280;43499;52.366;12.912;2023-05-11T02:53:47;101077.63;;;12.20;100.00
57668;BME280;43499;52.366;12.912;2023-05-11T02:54:50;101076.47;;;12.16;100.00
57668;BME280;43499;52.366;12.912;2023-05-11T02:55:54;101064.34;;;12.08;100.00
57668;BME280;43499;52.366;12.912;2023-05-11T02:56:55;101067.63;;;12.16;100.00
57668;BME280;43499;52.366;12.912;2023-05-11T02:57:57;101082.34;;;12.24;100.00
57668;BME280;43499;52.366;12.912;2023-05-11T02:58:59;101074.91;;;12.30;100.00
57668;BME280;43499;52.366;12.912;2023-05-11T03:00:01;101080.44;;;12.33;100.00
57668;BME280;43499;52.366;12.912;2023-05-11T03:01:06;101080.00;;;12.39;100.00
57668;BME280;43499;52.366;12.912;2023-05-11T03:02:07;101072.53;;;12.33;100.00
57668;BME280;43499;52.366;12.912;2023-05-11T03:03:08;101069.53;;;12.29;100.00
57668;BME280;43499;52.366;12.912;2023-05-11T03:04:09;101075.97;;;12.32;100.00
57668;BME280;43499;52.366;12.912;2023-05-11T03:05:10;101070.44;;;12.29;100.00
57668;BME280;43499;52.366;12.912;2023-05-11T03:06:11;101076.66;;;12.30;100.00
57668;BME280;43499;52.366;12.912;2023-05-11T03:07:13;101073.88;;;12.28;100.00
57668;BME280;43499;52.366;12.912;2023-05-11T03:08:14;101077.56;;;12.30;100.00
57668;BME280;43499;52.366;12.912;2023-05-11T03:09:15;101066.53;;;12.24;100.00
57668;BME280;43499;52.366;12.912;2023-05-11T03:10:20;101082.03;;;12.31;100.00
57668;BME280;43499;52.366;12.912;2023-05-11T03:11:25;101066.91;;;12.29;100.00
57668;BME280;43499;52.366;12.912;2023-05-11T03:12:26;101078.47;;;12.31;100.00
57668;BME280;43499;52.366;12.912;2023-05-11T03:13:31;101077.44;;;12.29;100.00
57668;BME280;43499;52.366;12.912;2023-05-11T03:14:36;101054.59;;;12.17;100.00
57668;BME280;43499;52.366;12.912;2023-05-11T03:15:39;101066.97;;;12.18;100.00
57668;BME280;43499;52.366;12.912;2023-05-11T03:16:41;101070.50;;;12.19;100.00
57668;BME280;43499;52.366;12.912;2023-05-11T03:17:43;101061.19;;;12.12;100.00
57668;BME280;43499;52.366;12.912;2023-05-11T03:18:48;101054.06;;;12.11;100.00
57668;BME280;43499;52.366;12.912;2023-05-11T03:19:52;101083.38;;;12.26;100.00
57668;BME280;43499;52.366;12.912;2023-05-11T03:20:54;101072.59;;;12.23;100.00
57668;BME280;43499;52.366;12.912;2023-05-11T03:21:57;101075.81;;;12.31;100.00
57668;BME280;43499;52.366;12.912;2023-05-11T03:22:59;101064.00;;;12.26;100.00
57668;BME280;43499;52.366;12.912;2023-05-11T03:24:03;101071.84;;;12.36;100.00
57668;BME280;43499;52.366;12.912;2023-05-11T03:25:11;101058.00;;;12.16;100.00
57668;BME280;43499;52.366;12.912;2023-05-11T03:26:17;101055.00;;;12.12;100.00
57668;BME280;43499;52.366;12.912;2023-05-11T03:27:19;101049.13;;;12.04;100.00
57668;BME280;43499;52.366;12.912;2023-05-11T03:28:21;101055.81;;;12.11;100.00
57668;BME280;43499;52.366;12.912;2023-05-11T03:29:33;101039.75;;;11.97;100.00
57668;BME280;43499;52.366;12.912;2023-05-11T03:30:50;101049.38;;;11.97;100.00
57668;BME280;43499;52.366;12.912;2023-05-11T03:31:53;101053.72;;;11.96;100.00
57668;BME280;43499;52.366;12.912;2023-05-11T03:32:55;101070.69;;;12.10;100.00
57668;BME280;43499;52.366;12.912;2023-05-11T03:33:57;101079.09;;;12.16;100.00
57668;BME280;43499;52.366;12.912;2023-05-11T03:34:59;101042.00;;;12.03;100.00
57668;BME280;43499;52.366;12.912;2023-05-11T03:36:02;101027.56;;;11.87;100.00
57668;BME280;43499;52.366;12.912;2023-05-11T03:37:05;101024.91;;;11.87;100.00
57668;BME280;43499;52.366;12.912;2023-05-11T03:38:10;101075.16;;;12.11;100.00
57668;BME280;43499;52.366;12.912;2023-05-11T03:39:14;101064.59;;;12.11;100.00
57668;BME280;43499;52.366;12.912;2023-05-11T03:40:16;101076.81;;;12.21;100.00
57668;BME280;43499;52.366;12.912;2023-05-11T03:41:25;101068.91;;;12.21;100.00
57668;BME280;43499;52.366;12.912;2023-05-11T03:42:29;101081.66;;;12.27;100.00
57668;BME280;43499;52.366;12.912;2023-05-11T03:43:33;101063.06;;;12.25;100.00
57668;BME280;43499;52.366;12.912;2023-05-11T03:44:36;101048.94;;;12.13;100.00
57668;BME280;43499;52.366;12.912;2023-05-11T03:45:38;101067.81;;;12.29;100.00
57668;BME280;43499;52.366;12.912;2023-05-11T03:46:43;101036.94;;;12.16;100.00
57668;BME280;43499;52.366;12.912;2023-05-11T03:47:47;101043.78;;;12.14;100.00
57668;BME280;43499;52.366;12.912;2023-05-11T03:48:50;101058.75;;;12.26;100.00
57668;BME280;43499;52.366;12.912;2023-05-11T03:49:55;101065.28;;;12.31;100.00
57668;BME280;43499;52.366;12.912;2023-05-11T03:50:59;101058.47;;;12.23;100.00
57668;BME280;43499;52.366;12.912;2023-05-11T03:52:00;101077.47;;;12.41;100.00
57668;BME280;43499;52.366;12.912;2023-05-11T03:53:03;101039.25;;;12.24;100.00
57668;BME280;43499;52.366;12.912;2023-05-11T03:54:04;101063.47;;;12.30;100.00
57668;BME280;43499;52.366;12.912;2023-05-11T03:55:07;101056.97;;;12.14;100.00
57668;BME280;43499;52.366;12.912;2023-05-11T03:56:08;101056.53;;;12.20;100.00
57668;BME280;43499;52.366;12.912;2023-05-11T03:57:10;101058.63;;;12.24;100.00
57668;BME280;43499;52.366;12.912;2023-05-11T03:58:13;101053.72;;;12.29;100.00
57668;BME280;43499;52.366;12.912;2023-05-11T03:59:15;101064.00;;;12.48;100.00
57668;BME280;43499;52.366;12.912;2023-05-11T04:00:17;101038.88;;;12.41;100.00
57668;BME280;43499;52.366;12.912;2023-05-11T04:01:19;101048.19;;;12.48;100.00
57668;BME280;43499;52.366;12.912;2023-05-11T04:02:22;101070.09;;;12.59;100.00
57668;BME280;43499;52.366;12.912;2023-05-11T04:03:26;101030.97;;;12.41;100.00
57668;BME280;43499;52.366;12.912;2023-05-11T04:04:30;101070.00;;;12.57;100.00
57668;BME280;43499;52.366;12.912;2023-05-11T04:05:34;101065.63;;;12.58;100.00
57668;BME280;43499;52.366;12.912;2023-05-11T04:06:38;101052.88;;;12.52;100.00
57668;BME280;43499;52.366;12.912;2023-05-11T04:07:52;101061.88;;;12.66;100.00
57668;BME280;43499;52.366;12.912;2023-05-11T04:08:53;101079.22;;;12.74;100.00
57668;BME280;43499;52.366;12.912;2023-05-11T04:09:55;101073.16;;;12.75;100.00
57668;BME280;43499;52.366;12.912;2023-05-11T04:10:56;101082.09;;;12.77;99.92
57668;BME280;43499;52.366;12.912;2023-05-11T04:11:57;101075.00;;;12.76;100.00
57668;BME280;43499;52.366;12.912;2023-05-11T04:12:59;101080.84;;;12.84;100.00
57668;BME280;43499;52.366;12.912;2023-05-11T04:14:00;101076.16;;;12.92;100.00
57668;BME280;43499;52.366;12.912;2023-05-11T04:15:02;101058.50;;;12.91;99.65
57668;BME280;43499;52.366;12.912;2023-05-11T04:16:04;101050.63;;;13.03;98.92
57668;BME280;43499;52.366;12.912;2023-05-11T04:17:06;101066.94;;;13.21;97.13
57668;BME280;43499;52.366;12.912;2023-05-11T04:18:10;101074.06;;;13.34;97.53
57668;BME280;43499;52.366;12.912;2023-05-11T04:19:11;101052.59;;;13.29;95.71
57668;BME280;43499;52.366;12.912;2023-05-11T04:20:15;101057.66;;;13.50;95.44
57668;BME280;43499;52.366;12.912;2023-05-11T04:21:16;101034.78;;;13.38;95.92
57668;BME280;43499;52.366;12.912;2023-05-11T04:22:18;101057.22;;;13.55;97.06
57668;BME280;43499;52.366;12.912;2023-05-11T04:23:19;101073.28;;;13.70;97.05
57668;BME280;43499;52.366;12.912;2023-05-11T04:24:21;101071.09;;;13.77;96.31
57668;BME280;43499;52.366;12.912;2023-05-11T04:25:22;101044.69;;;13.77;96.01
57668;BME280;43499;52.366;12.912;2023-05-11T04:26:26;101048.41;;;13.92;95.49
57668;BME280;43499;52.366;12.912;2023-05-11T04:27:27;101041.31;;;13.91;95.70
57668;BME280;43499;52.366;12.912;2023-05-11T04:28:28;101074.44;;;14.23;94.55
57668;BME280;43499;52.366;12.912;2023-05-11T04:29:30;101085.69;;;14.32;94.10
57668;BME280;43499;52.366;12.912;2023-05-11T04:30:31;101074.53;;;14.37;93.20
57668;BME280;43499;52.366;12.912;2023-05-11T04:31:32;101078.47;;;14.30;92.95
57668;BME280;43499;52.366;12.912;2023-05-11T04:32:34;101067.25;;;14.09;93.70
57668;BME280;43499;52.366;12.912;2023-05-11T04:33:36;101060.63;;;14.27;93.13
57668;BME280;43499;52.366;12.912;2023-05-11T04:34:38;101073.75;;;14.51;91.70
57668;BME280;43499;52.366;12.912;2023-05-11T04:35:44;101077.75;;;14.58;90.08
57668;BME280;43499;52.366;12.912;2023-05-11T04:36:49;101059.94;;;14.55;90.04
57668;BME280;43499;52.366;12.912;2023-05-11T04:37:52;101074.84;;;14.66;89.53
57668;BME280;43499;52.366;12.912;2023-05-11T04:38:53;101073.50;;;14.72;89.05
57668;BME280;43499;52.366;12.912;2023-05-11T04:39:55;101073.69;;;14.75;88.46
57668;BME280;43499;52.366;12.912;2023-05-11T04:40:56;101065.56;;;14.60;87.90
57668;BME280;43499;52.366;12.912;2023-05-11T04:41:58;101057.50;;;14.70;87.42
57668;BME280;43499;52.366;12.912;2023-05-11T04:43:00;101062.34;;;14.89;85.97
57668;BME280;43499;52.366;12.912;2023-05-11T04:44:01;101059.47;;;14.86;85.95
57668;BME280;43499;52.366;12.912;2023-05-11T04:45:03;101071.56;;;14.83;85.62
57668;BME280;43499;52.366;12.912;2023-05-11T04:46:06;101089.06;;;14.80;85.78
57668;BME280;43499;52.366;12.912;2023-05-11T04:47:07;101087.94;;;14.77;86.49
57668;BME280;43499;52.366;12.912;2023-05-11T04:48:09;101084.50;;;14.78;86.10
57668;BME280;43499;52.366;12.912;2023-05-11T04:49:10;101091.63;;;14.79;85.57
57668;BME280;43499;52.366;12.912;2023-05-11T04:50:13;101083.09;;;14.83;85.68
57668;BME280;43499;52.366;12.912;2023-05-11T04:51:15;101075.59;;;14.27;87.02
57668;BME280;43499;52.366;12.912;2023-05-11T04:52:18;101075.88;;;14.43;86.73
57668;BME280;43499;52.366;12.912;2023-05-11T04:53:22;101074.75;;;14.65;85.86
57668;BME280;43499;52.366;12.912;2023-05-11T04:54:24;101064.75;;;14.86;83.91
57668;BME280;43499;52.366;12.912;2023-05-11T04:55:27;101065.63;;;15.12;83.05
57668;BME280;43499;52.366;12.912;2023-05-11T04:56:29;101064.56;;;15.35;81.96
57668;BME280;43499;52.366;12.912;2023-05-11T04:57:31;101078.09;;;15.67;80.47
57668;BME280;43499;52.366;12.912;2023-05-11T04:58:32;101048.16;;;15.41;78.86
57668;BME280;43499;52.366;12.912;2023-05-11T04:59:34;101082.88;;;15.72;79.54
57668;BME280;43499;52.366;12.912;2023-05-11T05:00:35;101059.88;;;15.58;78.87
57668;BME280;43499;52.366;12.912;2023-05-11T05:01:37;101088.09;;;15.71;78.88
57668;BME280;43499;52.366;12.912;2023-05-11T05:02:38;101057.31;;;15.73;78.38
57668;BME280;43499;52.366;12.912;2023-05-11T05:03:40;101072.72;;;15.92;77.30
57668;BME280;43499;52.366;12.912;2023-05-11T05:04:41;101069.66;;;15.99;75.87
57668;BME280;43499;52.366;12.912;2023-05-11T05:05:42;101095.91;;;16.23;75.15
57668;BME280;43499;52.366;12.912;2023-05-11T05:06:44;101085.88;;;16.32;73.62
57668;BME280;43499;52.366;12.912;2023-05-11T05:07:45;101072.47;;;16.16;73.39
57668;BME280;43499;52.366;12.912;2023-05-11T05:08:47;101087.63;;;16.32;72.72
57668;BME280;43499;52.366;12.912;2023-05-11T05:09:49;101089.09;;;16.13;72.58
57668;BME280;43499;52.366;12.912;2023-05-11T05:10:50;101073.69;;;16.08;72.73
57668;BME280;43499;52.366;12.912;2023-05-11T05:11:52;101088.44;;;16.31;72.19
57668;BME280;43499;52.366;12.912;2023-05-11T05:12:53;101076.63;;;16.26;71.48
57668;BME280;43499;52.366;12.912;2023-05-11T05:13:55;101081.25;;;16.15;71.89
57668;BME280;43499;52.366;12.912;2023-05-11T05:14:56;101068.75;;;15.85;72.98
57668;BME280;43499;52.366;12.912;2023-05-11T05:15:57;101078.66;;;16.30;71.91
57668;BME280;43499;52.366;12.912;2023-05-11T05:16:59;101092.66;;;16.56;70.66
57668;BME280;43499;52.366;12.912;2023-05-11T05:18:01;101069.59;;;16.55;71.07
57668;BME280;43499;52.366;12.912;2023-05-11T05:19:04;101082.69;;;16.66;70.29
57668;BME280;43499;52.366;12.912;2023-05-11T05:20:09;101055.97;;;16.63;70.35
57668;BME280;43499;52.366;12.912;2023-05-11T05:21:13;101064.94;;;16.37;70.86
57668;BME280;43499;52.366;12.912;2023-05-11T05:22:15;101091.63;;;16.54;69.89
57668;BME280;43499;52.366;12.912;2023-05-11T05:23:16;101083.69;;;16.54;70.39
57668;BME280;43499;52.366;12.912;2023-05-11T05:24:17;101095.59;;;16.32;70.34
57668;BME280;43499;52.366;12.912;2023-05-11T05:25:19;101093.75;;;16.31;71.01
57668;BME280;43499;52.366;12.912;2023-05-11T05:26:21;101094.78;;;16.33;71.34
57668;BME280;43499;52.366;12.912;2023-05-11T05:27:23;101094.41;;;16.00;72.41
57668;BME280;43499;52.366;12.912;2023-05-11T05:28:25;101089.84;;;15.97;70.79
57668;BME280;43499;52.366;12.912;2023-05-11T05:29:26;101072.81;;;15.94;71.94
57668;BME280;43499;52.366;12.912;2023-05-11T05:30:28;101088.03;;;16.25;71.02
57668;BME280;43499;52.366;12.912;2023-05-11T05:31:29;101088.28;;;16.43;69.43